Time;durP1;ratioP1;P1;durP2;ratioP2;P2;SDS_P1;SDS_P2;PMS_P1;PMS_P2;Temp;Humidity;BMP_temperature;BMP_pressure;BME280_temperature;BME280_humidity;BME280_pressure;Samples;Min_cycle;Max_cycle;Signal;HPM_P1;HPM_P2
2022/06/06 00:01:10;;;;;;;0.10;0.10;;;21.40;76.50;;;;;;4192104;28;20399;-71
2022/06/06 00:03:33;;;;;;;0.10;0.10;;;21.40;76.50;;;;;;4193674;28;20052;-71
2022/06/06 00:05:55;;;;;;;0.10;0.10;;;21.40;76.50;;;;;;4193665;28;20051;-70
2022/06/06 00:08:18;;;;;;;0.25;0.25;;;21.40;76.50;;;;;;4193551;28;20045;-71
2022/06/06 00:10:42;;;;;;;0.20;0.20;;;21.40;76.60;;;;;;4176704;28;20048;-70
2022/06/06 00:13:04;;;;;;;0.45;0.45;;;21.40;76.70;;;;;;4176554;28;20053;-70
2022/06/06 00:15:26;;;;;;;0.00;0.00;;;21.40;76.50;;;;;;4176729;28;20048;-71
2022/06/06 00:17:49;;;;;;;0.00;0.00;;;21.40;76.50;;;;;;4176755;28;20098;-70
2022/06/06 00:20:11;;;;;;;0.00;0.00;;;21.40;76.50;;;;;;4176542;28;20055;-70
2022/06/06 00:22:33;;;;;;;0.00;0.00;;;21.40;76.50;;;;;;4176510;28;20571;-70
2022/06/06 00:24:56;;;;;;;0.13;0.13;;;21.40;76.50;;;;;;4175841;28;20045;-70
2022/06/06 00:27:19;;;;;;;0.57;0.52;;;21.40;76.40;;;;;;4176415;28;20053;-70
2022/06/06 00:29:41;;;;;;;0.00;0.00;;;21.40;76.40;;;;;;4176253;28;20465;-71
2022/06/06 00:34:52;;;;;;;0.00;0.00;;;21.40;76.40;;;;;;4192466;28;20048;-70
2022/06/06 00:37:17;;;;;;;0.15;0.08;;;21.40;76.40;;;;;;4189085;28;20064;-70
2022/06/06 00:39:39;;;;;;;0.00;0.00;;;21.40;76.40;;;;;;4191699;28;20491;-70
2022/06/06 00:42:01;;;;;;;0.00;0.00;;;21.40;76.40;;;;;;4192959;28;20059;-70
2022/06/06 00:44:29;;;;;;;0.00;0.00;;;21.50;76.30;;;;;;4192986;28;20063;-70
2022/06/06 00:46:56;;;;;;;0.00;0.00;;;21.50;76.30;;;;;;4192476;28;20063;-70
2022/06/06 00:49:30;;;;;;;2.05;1.10;;;21.40;76.40;;;;;;4192171;28;20147;-70
2022/06/06 00:51:58;;;;;;;0.00;0.00;;;21.40;76.30;;;;;;4175960;28;20048;-70
2022/06/06 00:54:23;;;;;;;0.00;0.00;;;21.40;76.30;;;;;;4176309;28;20462;-69
2022/06/06 00:56:50;;;;;;;0.10;0.10;;;21.40;76.30;;;;;;4176166;28;20053;-70
2022/06/06 00:59:15;;;;;;;0.00;0.00;;;21.50;76.30;;;;;;4189921;28;20041;-70
2022/06/06 01:01:40;;;;;;;0.00;0.00;;;21.40;77.10;;;;;;4192266;28;20067;-69
2022/06/06 01:04:04;;;;;;;0.00;0.00;;;21.40;76.20;;;;;;4191770;28;20044;-70
2022/06/06 01:06:29;;;;;;;0.10;0.10;;;21.40;76.20;;;;;;4192524;28;20047;-70
2022/06/06 01:08:52;;;;;;;0.00;0.00;;;21.40;76.20;;;;;;4192696;28;20040;-70
2022/06/06 01:11:14;;;;;;;0.00;0.00;;;21.40;76.20;;;;;;4190878;28;20098;-70
2022/06/06 01:13:39;;;;;;;0.10;0.10;;;21.40;76.20;;;;;;4192564;28;20151;-69
2022/06/06 01:16:21;;;;;;;0.47;0.35;;;21.40;76.20;;;;;;4191843;28;20040;-70
2022/06/06 01:18:59;;;;;;;0.22;0.22;;;21.40;76.20;;;;;;4175734;28;20131;-69
2022/06/06 01:21:56;;;;;;;0.38;0.38;;;21.40;76.20;;;;;;4175686;28;20048;-69
2022/06/06 01:24:37;;;;;;;0.00;0.00;;;21.40;76.20;;;;;;4182037;28;20110;-69
2022/06/06 01:27:26;;;;;;;0.00;0.00;;;21.40;76.10;;;;;;4192036;28;20126;-69
2022/06/06 01:29:55;;;;;;;0.00;0.00;;;21.40;76.20;;;;;;4191595;28;20052;-69
2022/06/06 01:32:21;;;;;;;0.00;0.00;;;21.40;76.30;;;;;;4192051;28;20060;-70
2022/06/06 01:34:48;;;;;;;0.00;0.00;;;21.40;76.30;;;;;;4190396;28;20041;-71
2022/06/06 01:37:25;;;;;;;0.10;0.10;;;21.40;76.40;;;;;;4191242;28;20149;-70
2022/06/06 01:39:47;;;;;;;0.03;0.03;;;21.40;76.40;;;;;;4191714;28;20044;-70
2022/06/06 01:42:14;;;;;;;1.23;1.23;;;21.40;76.40;;;;;;4192282;28;20052;-70
2022/06/06 01:44:41;;;;;;;0.00;0.00;;;21.40;76.40;;;;;;4191679;28;20135;-69
2022/06/06 01:47:07;;;;;;;0.00;0.00;;;21.40;76.60;;;;;;4191823;28;20537;-70
2022/06/06 01:49:32;;;;;;;0.00;0.00;;;21.40;76.70;;;;;;4192192;28;20067;-70
2022/06/06 01:52:03;;;;;;;0.00;0.00;;;21.30;76.60;;;;;;4175544;28;20139;-70
2022/06/06 01:54:25;;;;;;;0.00;0.00;;;21.40;76.70;;;;;;4158795;28;20049;-70
2022/06/06 01:56:47;;;;;;;0.22;0.22;;;21.30;76.70;;;;;;4159212;28;20057;-69
2022/06/06 01:59:09;;;;;;;0.00;0.00;;;21.30;76.80;;;;;;4159005;28;20162;-70
2022/06/06 02:01:31;;;;;;;0.00;0.00;;;21.40;77.00;;;;;;4158853;28;20048;-69
2022/06/06 02:03:55;;;;;;;0.00;0.00;;;21.30;76.90;;;;;;4182086;28;20052;-72
2022/06/06 02:06:17;;;;;;;0.00;0.00;;;21.30;76.90;;;;;;4191504;28;20094;-72
2022/06/06 02:08:39;;;;;;;0.00;0.00;;;21.30;76.90;;;;;;4175118;28;20048;-72
2022/06/06 02:11:01;;;;;;;0.55;0.55;;;21.30;77.00;;;;;;4191860;28;20036;-71
2022/06/06 02:13:23;;;;;;;0.00;0.00;;;21.30;77.10;;;;;;4191061;28;20044;-69
2022/06/06 02:15:45;;;;;;;0.00;0.00;;;21.30;77.10;;;;;;4190269;28;20113;-70
2022/06/06 02:18:07;;;;;;;0.00;0.00;;;21.30;77.10;;;;;;4191991;28;20041;-70
2022/06/06 02:20:32;;;;;;;0.00;0.00;;;21.30;77.10;;;;;;4191571;28;20052;-69
2022/06/06 02:22:55;;;;;;;0.00;0.00;;;21.30;77.10;;;;;;4190729;28;20044;-69
2022/06/06 02:25:17;;;;;;;0.00;0.00;;;21.30;77.20;;;;;;4191889;28;20068;-70
2022/06/06 02:27:40;;;;;;;0.00;0.00;;;21.30;77.20;;;;;;4191963;28;20094;-70
2022/06/06 02:30:03;;;;;;;0.20;0.20;;;21.30;77.20;;;;;;4191862;28;20113;-70
2022/06/06 02:32:25;;;;;;;0.43;0.30;;;21.20;77.20;;;;;;4191829;28;20048;-70
2022/06/06 02:34:47;;;;;;;0.63;0.63;;;21.20;77.20;;;;;;4191689;28;20044;-70
2022/06/06 02:37:11;;;;;;;0.00;0.00;;;21.20;77.20;;;;;;4190559;28;20057;-70
2022/06/06 02:39:33;;;;;;;0.00;0.00;;;21.20;77.20;;;;;;4190209;28;20411;-70
2022/06/06 02:41:56;;;;;;;0.98;0.85;;;21.20;77.30;;;;;;4191755;28;20048;-70
2022/06/06 02:44:18;;;;;;;0.00;0.00;;;21.20;77.40;;;;;;4191320;28;20048;-70
2022/06/06 02:46:40;;;;;;;0.32;0.32;;;21.20;77.40;;;;;;4191808;28;20056;-70
2022/06/06 02:49:02;;;;;;;1.08;0.95;;;21.20;77.40;;;;;;4193307;28;20053;-69
2022/06/06 02:51:24;;;;;;;0.00;0.00;;;21.10;77.30;;;;;;4193304;28;20913;-70
2022/06/06 02:53:49;;;;;;;0.00;0.00;;;21.20;77.40;;;;;;4194859;28;20412;-70
2022/06/06 02:56:11;;;;;;;0.50;0.50;;;21.10;77.50;;;;;;4194392;28;20375;-69
2022/06/06 02:58:33;;;;;;;0.17;0.17;;;21.10;77.50;;;;;;4194413;28;20049;-70
2022/06/06 03:00:59;;;;;;;0.00;0.00;;;21.10;77.50;;;;;;4194321;28;20491;-70
2022/06/06 03:03:22;;;;;;;0.98;0.82;;;21.10;77.50;;;;;;4194092;28;20052;-69
2022/06/06 03:05:54;;;;;;;0.28;0.28;;;21.10;77.50;;;;;;4194184;28;20045;-68
2022/06/06 03:08:27;;;;;;;0.00;0.00;;;21.10;77.50;;;;;;4193890;28;20049;-70
2022/06/06 03:11:14;;;;;;;0.10;0.10;;;21.10;77.50;;;;;;4194218;28;20087;-70
2022/06/06 03:13:48;;;;;;;0.10;0.10;;;21.10;77.50;;;;;;4177572;28;20044;-70
2022/06/06 03:22:12;;;;;;;0.00;0.00;;;21.10;77.40;;;;;;4160989;28;20140;-70
2022/06/06 03:24:40;;;;;;;1.45;0.47;;;21.10;77.40;;;;;;4190490;28;20040;-70
2022/06/06 03:27:16;;;;;;;0.00;0.00;;;21.00;77.40;;;;;;4193042;28;20037;-70
2022/06/06 03:29:51;;;;;;;0.00;0.00;;;21.00;77.40;;;;;;4192763;28;20123;-70
2022/06/06 03:32:21;;;;;;;0.03;0.03;;;21.00;77.40;;;;;;4194116;28;20744;-70
2022/06/06 03:34:51;;;;;;;0.00;0.00;;;21.00;77.50;;;;;;4194110;28;20045;-70
2022/06/06 03:37:23;;;;;;;0.00;0.00;;;21.00;77.50;;;;;;4194156;28;20492;-70
2022/06/06 03:39:56;;;;;;;0.20;0.20;;;21.00;77.50;;;;;;4193797;28;20089;-70
2022/06/06 03:42:27;;;;;;;0.00;0.00;;;21.00;77.40;;;;;;4193827;28;20072;-70
2022/06/06 03:45:01;;;;;;;1.95;1.85;;;21.00;77.50;;;;;;4194253;28;20048;-70
2022/06/06 03:47:33;;;;;;;0.00;0.00;;;21.00;77.50;;;;;;4192504;28;20047;-70
2022/06/06 03:50:04;;;;;;;0.00;0.00;;;21.00;77.50;;;;;;4194052;28;20044;-70
2022/06/06 03:52:30;;;;;;;0.00;0.00;;;21.00;77.70;;;;;;4193536;28;20052;-69
2022/06/06 03:55:02;;;;;;;0.00;0.00;;;21.00;77.60;;;;;;4192621;28;20526;-69
2022/06/06 03:57:27;;;;;;;0.00;0.00;;;21.00;77.70;;;;;;4193563;28;20475;-71
2022/06/06 03:59:56;;;;;;;0.00;0.00;;;21.00;77.60;;;;;;4192699;28;20060;-69
2022/06/06 04:02:23;;;;;;;0.00;0.00;;;21.00;77.70;;;;;;4193875;28;20595;-70
2022/06/06 04:04:45;;;;;;;0.00;0.00;;;21.00;77.70;;;;;;4193655;28;20071;-68
2022/06/06 04:07:07;;;;;;;0.03;0.03;;;20.90;77.70;;;;;;4193479;28;20052;-68
2022/06/06 04:09:33;;;;;;;0.05;0.05;;;20.90;77.60;;;;;;4192253;28;20504;-69
2022/06/06 04:12:02;;;;;;;0.10;0.10;;;21.00;77.50;;;;;;4193695;28;20040;-69
2022/06/06 04:14:37;;;;;;;0.00;0.00;;;21.00;77.60;;;;;;4191884;28;20040;-69
2022/06/06 04:17:10;;;;;;;0.00;0.00;;;21.00;77.60;;;;;;4191379;28;20064;-69
2022/06/06 04:19:41;;;;;;;0.00;0.00;;;21.00;77.60;;;;;;4192498;28;20048;-70
2022/06/06 04:22:15;;;;;;;0.00;0.00;;;20.90;77.60;;;;;;4192894;28;20053;-70
2022/06/06 04:24:55;;;;;;;0.22;0.22;;;20.90;78.40;;;;;;4192852;28;20487;-70
2022/06/06 04:27:27;;;;;;;0.00;0.00;;;20.90;77.50;;;;;;4176431;28;20052;-70
2022/06/06 04:29:58;;;;;;;0.00;0.00;;;20.90;77.50;;;;;;4176235;28;20051;-69
2022/06/06 04:32:32;;;;;;;0.00;0.00;;;20.90;77.50;;;;;;4175121;28;20115;-69
2022/06/06 04:35:02;;;;;;;0.00;0.00;;;20.90;77.50;;;;;;4191576;28;20098;-70
2022/06/06 04:37:33;;;;;;;0.00;0.00;;;20.90;77.50;;;;;;4192936;28;20094;-69
2022/06/06 04:40:02;;;;;;;0.00;0.00;;;20.90;77.60;;;;;;4192607;28;20105;-69
2022/06/06 04:42:35;;;;;;;0.00;0.00;;;20.90;77.50;;;;;;4192534;28;20053;-69
2022/06/06 04:45:08;;;;;;;0.00;0.00;;;20.90;77.60;;;;;;4192262;28;20041;-69
2022/06/06 04:47:36;;;;;;;0.00;0.00;;;20.90;77.60;;;;;;4192879;28;20054;-69
2022/06/06 04:49:59;;;;;;;0.00;0.00;;;20.90;78.50;;;;;;4191234;28;20073;-69
2022/06/06 04:52:23;;;;;;;0.00;0.00;;;20.90;77.60;;;;;;4193216;28;20463;-69
2022/06/06 04:54:46;;;;;;;2.67;0.80;;;20.90;77.70;;;;;;4192720;28;20139;-70
2022/06/06 04:57:10;;;;;;;0.00;0.00;;;20.90;77.70;;;;;;4192452;28;20523;-70
2022/06/06 04:59:32;;;;;;;0.00;0.00;;;20.90;77.70;;;;;;4192487;28;20040;-70
2022/06/06 05:01:58;;;;;;;0.00;0.00;;;20.90;77.80;;;;;;4192186;28;20052;-71
2022/06/06 05:04:20;;;;;;;0.00;0.00;;;20.90;77.70;;;;;;4190970;28;20090;-70
2022/06/06 05:07:04;;;;;;;0.70;0.70;;;20.90;77.70;;;;;;4192365;28;20127;-70
2022/06/06 05:09:44;;;;;;;0.00;0.00;;;20.90;77.70;;;;;;4175717;28;20052;-70
2022/06/06 05:12:17;;;;;;;0.10;0.10;;;20.90;77.70;;;;;;4175729;28;20040;-70
2022/06/06 05:14:57;;;;;;;0.00;0.00;;;20.80;77.60;;;;;;4192129;28;20068;-70
2022/06/06 05:17:49;;;;;;;0.00;0.00;;;20.90;77.60;;;;;;4192615;28;20052;-72
2022/06/06 05:20:32;;;;;;;0.00;0.00;;;20.80;77.50;;;;;;4191961;28;20055;-72
2022/06/06 05:23:08;;;;;;;0.00;0.00;;;20.80;77.60;;;;;;4192343;28;20446;-72
2022/06/06 05:25:50;;;;;;;0.00;0.00;;;20.80;77.60;;;;;;4192193;28;20128;-75
2022/06/06 05:28:27;;;;;;;0.05;0.05;;;20.80;77.60;;;;;;4192066;28;20052;-74
2022/06/06 05:30:56;;;;;;;0.00;0.00;;;20.80;77.60;;;;;;4191087;28;20052;-77
2022/06/06 05:33:26;;;;;;;0.00;0.00;;;20.80;77.50;;;;;;4176325;28;20052;-77
2022/06/06 05:36:20;;;;;;;1.65;0.98;;;20.80;77.50;;;;;;4191826;28;20480;-72
2022/06/06 05:39:10;;;;;;;0.00;0.00;;;20.80;77.80;;;;;;4182971;28;20044;-77
2022/06/06 05:41:47;;;;;;;0.65;0.65;;;20.80;78.20;;;;;;4191627;28;20434;-74
2022/06/06 05:44:21;;;;;;;0.00;0.00;;;20.80;78.10;;;;;;4192028;28;20044;-74
2022/06/06 05:46:54;;;;;;;0.00;0.00;;;20.90;78.70;;;;;;4190130;28;20131;-74
2022/06/06 05:49:31;;;;;;;0.00;0.00;;;20.90;77.60;;;;;;4190333;28;20056;-74
2022/06/06 05:52:08;;;;;;;0.00;0.00;;;20.90;77.60;;;;;;4191887;28;20058;-74
2022/06/06 05:54:54;;;;;;;0.25;0.25;;;20.90;77.50;;;;;;4191748;28;20052;-75
2022/06/06 05:57:32;;;;;;;0.00;0.00;;;20.80;77.50;;;;;;4192011;28;20503;-74
2022/06/06 06:00:16;;;;;;;0.00;0.00;;;20.80;77.40;;;;;;4192250;28;20052;-75
2022/06/06 06:03:08;;;;;;;0.00;0.00;;;20.80;77.30;;;;;;4191564;28;20047;-74
2022/06/06 06:05:44;;;;;;;0.25;0.25;;;20.80;77.30;;;;;;4190376;28;20045;-73
2022/06/06 06:08:20;;;;;;;0.00;0.00;;;20.80;77.30;;;;;;4191598;28;20067;-74
2022/06/06 06:10:53;;;;;;;0.00;0.00;;;20.70;77.20;;;;;;4191468;28;20040;-74
2022/06/06 06:13:31;;;;;;;0.00;0.00;;;20.70;77.20;;;;;;4191776;28;20080;-74
2022/06/06 06:15:54;;;;;;;0.00;0.00;;;20.70;77.20;;;;;;4174244;28;20048;-74
2022/06/06 06:18:23;;;;;;;0.00;0.00;;;20.70;77.10;;;;;;4173129;28;20069;-73
2022/06/06 06:20:53;;;;;;;0.00;0.00;;;20.70;77.10;;;;;;4183357;28;20053;-73
2022/06/06 06:23:20;;;;;;;0.00;0.00;;;20.70;77.20;;;;;;4173878;28;20545;-73
2022/06/06 06:25:45;;;;;;;0.00;0.00;;;20.70;78.10;;;;;;4179834;28;20059;-74
2022/06/06 06:28:10;;;;;;;0.13;0.13;;;20.60;77.10;;;;;;4191733;28;20055;-74
2022/06/06 06:30:44;;;;;;;0.00;0.00;;;20.60;77.10;;;;;;4191786;28;20055;-73
2022/06/06 06:33:33;;;;;;;0.00;0.00;;;20.60;77.00;;;;;;4189288;28;20052;-73
2022/06/06 06:36:06;;;;;;;0.13;0.10;;;20.60;77.10;;;;;;4189765;28;20463;-74
2022/06/06 06:38:50;;;;;;;0.38;0.38;;;20.60;77.10;;;;;;4179027;28;20052;-73
2022/06/06 06:41:23;;;;;;;0.00;0.00;;;20.60;77.10;;;;;;4174311;28;20048;-73
2022/06/06 06:43:55;;;;;;;0.03;0.03;;;20.60;77.00;;;;;;4191488;28;20438;-74
2022/06/06 06:46:21;;;;;;;0.57;0.55;;;20.60;77.00;;;;;;4190701;28;20950;-73
2022/06/06 06:48:46;;;;;;;0.00;0.00;;;20.60;78.10;;;;;;4191370;28;20050;-73
2022/06/06 06:51:15;;;;;;;0.00;0.00;;;20.60;79.90;;;;;;4176684;28;20057;-71
2022/06/06 06:54:04;;;;;;;0.00;0.00;;;20.60;79.20;;;;;;4176196;28;20061;-71
2022/06/06 06:56:54;;;;;;;0.00;0.00;;;20.60;78.70;;;;;;4182256;28;20068;-71
2022/06/06 06:59:24;;;;;;;0.00;0.00;;;20.60;77.50;;;;;;4176255;28;20045;-72
2022/06/06 07:10:23;;;;;;;0.47;0.47;;;20.60;75.60;;;;;;4184220;28;20492;-73
2022/06/06 07:13:15;;;;;;;0.43;0.43;;;20.60;75.20;;;;;;4191670;28;20139;-75
2022/06/06 07:15:47;;;;;;;0.00;0.00;;;20.50;75.00;;;;;;4175465;28;20464;-73
2022/06/06 07:18:14;;;;;;;0.00;0.00;;;20.50;74.80;;;;;;4175277;28;20501;-75
2022/06/06 07:20:39;;;;;;;0.00;0.00;;;20.50;74.80;;;;;;4181604;28;20071;-73
2022/06/06 07:23:06;;;;;;;0.22;0.22;;;20.50;75.70;;;;;;4175789;28;20053;-74
2022/06/06 07:25:33;;;;;;;0.00;0.00;;;20.50;74.70;;;;;;4184865;28;20095;-72
2022/06/06 07:27:55;;;;;;;0.20;0.20;;;20.50;74.50;;;;;;4177827;28;20059;-73
2022/06/06 07:30:17;;;;;;;0.00;0.00;;;20.50;74.50;;;;;;4175492;28;20053;-73
2022/06/06 07:32:49;;;;;;;0.05;0.05;;;20.50;74.50;;;;;;4180927;28;20045;-71
2022/06/06 07:35:21;;;;;;;0.22;0.22;;;20.50;74.50;;;;;;4179966;28;20087;-73
2022/06/06 07:37:55;;;;;;;0.00;0.00;;;20.50;74.40;;;;;;4175139;28;20041;-73
2022/06/06 07:40:31;;;;;;;24.52;1.42;;;20.50;74.50;;;;;;4176802;28;20479;-71
2022/06/06 07:43:09;;;;;;;0.30;0.30;;;20.50;74.40;;;;;;4175171;28;20568;-72
2022/06/06 07:45:36;;;;;;;0.00;0.00;;;20.50;74.40;;;;;;4172845;28;20045;-72
2022/06/06 07:48:23;;;;;;;0.00;0.00;;;20.50;74.40;;;;;;4186754;28;20070;-72
2022/06/06 07:50:54;;;;;;;0.52;0.52;;;20.60;74.30;;;;;;4184535;28;20131;-73
2022/06/06 07:53:25;;;;;;;0.00;0.00;;;20.50;74.30;;;;;;4198812;28;20139;-72
2022/06/06 07:55:54;;;;;;;0.00;0.00;;;20.50;74.30;;;;;;4177630;28;20081;-72
2022/06/06 07:58:26;;;;;;;0.00;0.00;;;20.50;74.30;;;;;;4174807;28;20476;-73
2022/06/06 08:00:55;;;;;;;;;;;20.50;74.40;;;;;;4176070;28;20114;-70
2022/06/06 08:03:20;;;;;;;0.00;0.00;;;20.50;74.50;;;;;;4190125;28;19967;-72
2022/06/06 08:06:09;;;;;;;0.00;0.00;;;20.50;75.30;;;;;;4187753;28;20052;-72
2022/06/06 08:08:55;;;;;;;0.00;0.00;;;20.60;74.30;;;;;;4186714;28;20064;-73
2022/06/06 08:11:25;;;;;;;0.40;0.40;;;20.60;74.20;;;;;;4176633;28;20052;-72
2022/06/06 08:13:57;;;;;;;0.00;0.00;;;20.50;74.00;;;;;;4182689;28;20076;-72
2022/06/06 08:16:28;;;;;;;0.00;0.00;;;20.60;73.80;;;;;;4176149;28;20052;-72
2022/06/06 08:19:07;;;;;;;0.00;0.00;;;20.60;73.40;;;;;;4190272;28;20063;-72
2022/06/06 08:21:36;;;;;;;0.00;0.00;;;20.60;73.10;;;;;;4174257;28;20263;-72
2022/06/06 08:24:01;;;;;;;0.00;0.00;;;20.50;73.00;;;;;;4183717;28;20049;-73
2022/06/06 08:26:48;;;;;;;0.00;0.00;;;20.60;73.00;;;;;;4188591;28;20415;-72
2022/06/06 08:29:11;;;;;;;0.00;0.00;;;20.60;72.80;;;;;;4165921;28;20037;-73
2022/06/06 08:31:33;;;;;;;0.10;0.10;;;20.70;72.70;;;;;;4187699;28;20148;-72
2022/06/06 08:33:56;;;;;;;0.00;0.00;;;20.60;72.50;;;;;;4179739;28;20064;-72
2022/06/06 08:36:35;;;;;;;0.10;0.10;;;20.60;72.50;;;;;;4184149;28;20056;-72
2022/06/06 08:39:07;;;;;;;0.43;0.43;;;20.70;72.40;;;;;;4174232;28;20143;-71
2022/06/06 08:42:03;;;;;;;0.00;0.00;;;20.70;72.20;;;;;;4189433;28;20056;-70
2022/06/06 08:44:36;;;;;;;0.00;0.00;;;20.70;72.70;;;;;;4179482;28;20211;-70
2022/06/06 08:47:09;;;;;;;0.20;0.20;;;20.70;72.40;;;;;;4189149;28;20159;-70
2022/06/06 08:52:57;;;;;;;0.00;0.00;;;20.60;71.90;;;;;;4185714;28;20040;-72
2022/06/06 08:55:49;;;;;;;0.30;0.30;;;20.60;71.70;;;;;;4180792;28;20044;-71
2022/06/06 08:58:42;;;;;;;0.00;0.00;;;20.60;71.70;;;;;;4189247;28;20429;-72
2022/06/06 09:01:16;;;;;;;0.00;0.00;;;20.70;71.60;;;;;;4177035;28;20348;-70
2022/06/06 09:04:26;;;;;;;0.00;0.00;;;20.70;71.60;;;;;;4179552;28;20158;-70
2022/06/06 09:07:22;;;;;;;0.00;0.00;;;20.70;71.50;;;;;;4189529;28;20045;-70
2022/06/06 09:10:42;;;;;;;0.00;0.00;;;20.70;71.20;;;;;;4185516;28;20723;-70
2022/06/06 09:13:43;;;;;;;0.00;0.00;;;20.70;71.00;;;;;;4194996;28;20056;-71
2022/06/06 09:16:44;;;;;;;0.32;0.32;;;20.70;70.90;;;;;;4186476;28;20052;-71
2022/06/06 09:19:38;;;;;;;0.00;0.00;;;20.70;70.80;;;;;;4185599;28;20052;-69
2022/06/06 09:22:25;;;;;;;0.32;0.32;;;20.70;70.70;;;;;;4180781;28;20055;-71
2022/06/06 09:25:13;;;;;;;0.00;0.00;;;20.70;70.40;;;;;;4182145;28;20048;-72
2022/06/06 09:28:20;;;;;;;0.10;0.10;;;20.70;70.20;;;;;;4176864;28;20044;-71
2022/06/06 09:31:16;;;;;;;0.00;0.00;;;20.70;70.30;;;;;;4179271;28;20048;-70
2022/06/06 09:34:08;;;;;;;0.00;0.00;;;20.70;70.40;;;;;;4177797;28;20688;-70
2022/06/06 09:36:47;;;;;;;0.00;0.00;;;20.70;70.20;;;;;;4181659;28;20059;-70
2022/06/06 09:39:13;;;;;;;0.00;0.00;;;20.80;70.10;;;;;;4185523;28;20143;-70
2022/06/06 09:41:43;;;;;;;0.15;0.15;;;20.80;69.90;;;;;;4174914;28;20048;-70
2022/06/06 09:44:21;;;;;;;0.00;0.00;;;20.80;69.70;;;;;;4173637;28;20529;-70
2022/06/06 09:47:20;;;;;;;0.00;0.00;;;20.80;69.60;;;;;;4173356;28;20048;-70
2022/06/06 09:50:22;;;;;;;0.00;0.00;;;20.80;69.30;;;;;;4183211;28;20056;-71
2022/06/06 09:53:26;;;;;;;0.00;0.00;;;20.80;69.10;;;;;;4180276;28;20192;-71
2022/06/06 09:59:32;;;;;;;0.00;0.00;;;20.80;68.70;;;;;;4172163;28;20072;-71
2022/06/06 10:02:25;;;;;;;0.00;0.00;;;20.80;68.60;;;;;;4187483;28;20055;-71
2022/06/06 10:05:36;;;;;;;0.00;0.00;;;20.80;68.50;;;;;;4167374;28;20442;-70
2022/06/06 10:08:27;;;;;;;0.00;0.00;;;20.80;68.10;;;;;;4169528;28;20049;-70
2022/06/06 10:11:20;;;;;;;0.00;0.00;;;20.90;67.80;;;;;;4153813;28;20160;-71
2022/06/06 10:14:03;;;;;;;0.10;0.10;;;20.90;67.80;;;;;;4183979;28;20041;-71
2022/06/06 10:16:44;;;;;;;0.08;0.08;;;20.90;67.60;;;;;;4156199;28;20156;-71
2022/06/06 10:19:19;;;;;;;0.17;0.17;;;20.90;67.30;;;;;;4169132;28;20474;-71
2022/06/06 10:22:14;;;;;;;0.00;0.00;;;20.90;66.90;;;;;;4164593;28;20486;-71
2022/06/06 10:25:08;;;;;;;0.00;0.00;;;20.90;66.70;;;;;;4160834;28;20049;-71
2022/06/06 10:28:02;;;;;;;0.00;0.00;;;20.90;66.50;;;;;;4170467;28;20041;-69
2022/06/06 10:30:31;;;;;;;0.00;0.00;;;20.90;66.20;;;;;;4186346;28;20048;-71
2022/06/06 10:33:38;;;;;;;0.25;0.25;;;20.90;66.10;;;;;;4178905;28;20052;-71
2022/06/06 10:36:20;;;;;;;0.00;0.00;;;20.90;66.00;;;;;;4188783;28;20063;-69
2022/06/06 10:39:08;;;;;;;0.10;0.10;;;21.00;65.90;;;;;;4173132;28;20056;-68
2022/06/06 10:41:52;;;;;;;2.78;1.65;;;21.00;66.70;;;;;;4171551;28;20062;-69
2022/06/06 10:44:56;;;;;;;0.00;0.00;;;21.00;65.60;;;;;;4173225;28;20040;-70
2022/06/06 10:47:35;;;;;;;0.15;0.15;;;21.10;65.30;;;;;;4182658;28;20071;-69
2022/06/06 10:50:04;;;;;;;0.00;0.00;;;21.10;64.80;;;;;;4183162;28;20048;-69
2022/06/06 10:53:02;;;;;;;0.00;0.00;;;21.10;64.30;;;;;;4172516;28;20408;-69
2022/06/06 10:56:09;;;;;;;0.00;0.00;;;21.10;64.30;;;;;;4174181;28;21037;-69
2022/06/06 10:59:06;;;;;;;0.00;0.00;;;21.10;63.70;;;;;;4171177;28;20045;-69
2022/06/06 11:01:52;;;;;;;0.00;0.00;;;21.10;63.60;;;;;;4184969;28;20053;-71
2022/06/06 11:04:41;;;;;;;0.00;0.00;;;21.10;63.70;;;;;;4181635;28;20056;-71
2022/06/06 11:07:27;;;;;;;0.00;0.00;;;21.10;63.80;;;;;;4153130;28;20116;-70
2022/06/06 11:10:11;;;;;;;0.00;0.00;;;21.10;63.70;;;;;;4178832;28;20048;-70
2022/06/06 11:12:52;;;;;;;0.00;0.00;;;21.10;63.60;;;;;;4188947;28;20384;-70
2022/06/06 11:15:14;;;;;;;0.00;0.00;;;21.10;63.50;;;;;;4183796;28;20407;-70
2022/06/06 11:18:04;;;;;;;0.00;0.00;;;21.10;63.50;;;;;;4173308;28;20045;-71
2022/06/06 11:20:59;;;;;;;0.00;0.00;;;21.10;63.60;;;;;;4187998;28;20048;-70
2022/06/06 11:23:44;;;;;;;0.00;0.00;;;21.10;63.50;;;;;;4174145;28;20060;-70
2022/06/06 11:26:46;;;;;;;0.13;0.13;;;21.10;63.70;;;;;;4175183;28;20135;-70
2022/06/06 11:29:38;;;;;;;0.00;0.00;;;21.20;64.00;;;;;;4180609;28;20062;-70
2022/06/06 11:32:22;;;;;;;0.08;0.08;;;21.10;64.00;;;;;;4175010;28;20486;-70
2022/06/06 11:35:12;;;;;;;0.00;0.00;;;21.20;64.30;;;;;;4180686;28;20403;-70
2022/06/06 11:38:12;;;;;;;0.00;0.00;;;21.10;64.20;;;;;;4173553;28;20500;-70
2022/06/06 11:40:57;;;;;;;0.00;0.00;;;21.20;64.30;;;;;;4185705;28;20400;-74
2022/06/06 11:43:48;;;;;;;0.00;0.00;;;21.20;65.20;;;;;;4175853;28;20298;-71
2022/06/06 11:46:39;;;;;;;0.65;0.65;;;21.20;64.20;;;;;;4177383;28;20075;-71
2022/06/06 11:49:35;;;;;;;0.00;0.00;;;21.20;64.20;;;;;;4175103;28;20049;-72
2022/06/06 11:52:27;;;;;;;0.00;0.00;;;21.30;63.50;;;;;;4189077;28;20052;-71
2022/06/06 11:55:24;;;;;;;0.00;0.00;;;21.30;62.80;;;;;;4174855;28;20499;-73
2022/06/06 11:58:04;;;;;;;0.00;0.00;;;21.30;62.40;;;;;;4176081;28;20044;-75
2022/06/06 12:00:40;;;;;;;0.00;0.00;;;21.30;62.00;;;;;;4174651;28;20075;-74
2022/06/06 12:03:47;;;;;;;0.00;0.00;;;21.30;61.60;;;;;;4174932;28;20049;-73
2022/06/06 12:06:55;;;;;;;0.00;0.00;;;21.20;61.50;;;;;;4179241;28;20467;-73
2022/06/06 12:09:31;;;;;;;0.00;0.00;;;21.20;62.20;;;;;;4181222;28;20075;-73
2022/06/06 12:12:37;;;;;;;0.00;0.00;;;21.20;63.00;;;;;;4175853;28;20056;-74
2022/06/06 12:15:28;;;;;;;0.00;0.00;;;21.20;63.60;;;;;;4181119;28;20052;-74
2022/06/06 12:18:12;;;;;;;2.42;1.13;;;21.20;63.70;;;;;;4178881;28;20456;-74
2022/06/06 12:20:55;;;;;;;0.10;0.10;;;21.20;63.40;;;;;;4189008;28;20057;-74
2022/06/06 12:23:28;;;;;;;0.00;0.00;;;21.20;63.30;;;;;;4189537;28;20048;-73
2022/06/06 12:26:11;;;;;;;0.17;0.17;;;21.20;63.30;;;;;;4180528;28;20776;-74
2022/06/06 12:29:17;;;;;;;0.00;0.00;;;21.20;63.40;;;;;;4186898;28;20080;-74
2022/06/06 12:32:12;;;;;;;0.00;0.00;;;21.30;63.60;;;;;;4178257;28;20052;-73
2022/06/06 12:34:43;;;;;;;0.05;0.05;;;21.20;63.50;;;;;;4172740;28;20048;-72
2022/06/06 12:37:12;;;;;;;0.03;0.03;;;21.20;63.40;;;;;;4175571;28;20045;-72
2022/06/06 12:39:52;;;;;;;0.00;0.00;;;21.20;63.30;;;;;;4190965;28;20044;-72
2022/06/06 12:42:26;;;;;;;0.00;0.00;;;21.20;63.10;;;;;;4185626;28;20048;-72
2022/06/06 12:45:16;;;;;;;0.00;0.00;;;21.20;62.70;;;;;;4182358;28;20064;-72
2022/06/06 12:48:03;;;;;;;0.00;0.00;;;21.20;62.50;;;;;;4174223;28;20048;-72
2022/06/06 12:50:38;;;;;;;0.00;0.00;;;21.20;62.40;;;;;;4176631;28;20128;-72
2022/06/06 12:53:37;;;;;;;0.08;0.08;;;21.20;62.40;;;;;;4174908;28;20078;-72
2022/06/06 12:59:06;;;;;;;0.00;0.00;;;21.10;61.90;;;;;;4189967;28;20483;-72
2022/06/06 13:01:39;;;;;;;0.00;0.00;;;21.10;61.60;;;;;;4179800;28;20164;-72
2022/06/06 13:04:14;;;;;;;0.00;0.00;;;21.10;61.30;;;;;;4174366;28;20049;-72
2022/06/06 13:06:48;;;;;;;0.00;0.00;;;21.10;61.10;;;;;;4176425;28;20048;-72
2022/06/06 13:09:33;;;;;;;0.00;0.00;;;21.10;60.90;;;;;;4186933;28;20048;-73
2022/06/06 13:12:09;;;;;;;0.40;0.40;;;21.10;61.00;;;;;;4181334;28;20106;-72
2022/06/06 13:15:05;;;;;;;0.00;0.00;;;21.10;60.40;;;;;;4174845;28;20440;-72
2022/06/06 13:17:35;;;;;;;0.00;0.00;;;21.10;60.30;;;;;;4187861;28;20036;-72
2022/06/06 13:20:18;;;;;;;0.00;0.00;;;21.10;60.10;;;;;;4179668;28;20117;-72
2022/06/06 13:23:27;;;;;;;0.05;0.05;;;21.10;60.00;;;;;;4180832;28;20075;-72
2022/06/06 13:26:07;;;;;;;0.00;0.00;;;21.00;60.10;;;;;;4176891;28;20131;-71
2022/06/06 13:28:32;;;;;;;0.00;0.00;;;21.00;60.40;;;;;;4177091;28;20045;-70
2022/06/06 13:31:25;;;;;;;0.00;0.00;;;21.00;60.80;;;;;;4173140;28;20130;-72
2022/06/06 13:34:05;;;;;;;0.00;0.00;;;21.00;61.50;;;;;;4182470;28;20476;-71
2022/06/06 13:36:45;;;;;;;0.00;0.00;;;21.00;62.20;;;;;;4189378;28;20129;-71
2022/06/06 13:39:25;;;;;;;0.00;0.00;;;21.00;62.70;;;;;;4165142;28;20051;-72
2022/06/06 13:41:56;;;;;;;0.00;0.00;;;20.90;63.00;;;;;;4176465;28;20110;-72
2022/06/06 13:44:39;;;;;;;0.00;0.00;;;20.90;63.20;;;;;;4185667;28;20497;-72
2022/06/06 13:47:09;;;;;;;1.88;1.55;;;20.90;63.40;;;;;;4175212;28;20114;-73
2022/06/06 13:50:02;;;;;;;0.00;0.00;;;20.90;63.70;;;;;;4176682;28;20045;-71
2022/06/06 13:52:41;;;;;;;0.00;0.00;;;20.90;63.80;;;;;;4178231;28;20044;-71
2022/06/06 13:55:28;;;;;;;0.00;0.00;;;20.90;63.90;;;;;;4170266;28;20049;-71
2022/06/06 13:57:57;;;;;;;0.00;0.00;;;20.90;64.10;;;;;;4179612;28;20062;-73
2022/06/06 14:00:21;;;;;;;0.00;0.00;;;20.80;64.00;;;;;;4180689;28;20044;-74